Meteo Giornale » Osservazioni meteo Italia » Bari-Palese Macchie

ore: 16:20 - Osservazioni Meteo Bari-Palese Macchie
Lat. 41° 8' N Lon. 16° 47' E Alt. 34 metri s.l.m.

sereno Europe/Rome

30 °C

Sereno

Temp. 24 Ore

27 °C

38 °C

Est/Nord-Est

18.5 Km/h

Dew point 18 °C

Umidità 48 %

Visibilità  10 Km

Il sole sorge alle ore 05:48

Il sole tramonta alle ore 20:10

Data e Ora Cielo e Fenomeni T °C DP °C Um. % Pres. hPa Vis. km Vento km/h
Oggi h: 16:20 sereno Sereno 30 18 48 1013 10 E/NE 18.5
Oggi h: 15:50 sereno Sereno 31 16 40 1013 10 E/NE 16.7
Oggi h: 15:20 sereno Sereno 31 17 43 1013 10 NE 13
Oggi h: 14:50 sereno Sereno 30 18 48 1013 10 E/NE 18.5
Oggi h: 14:20 sereno Sereno 31 16 40 1013 10 E/NE 16.7
Oggi h: 13:50 sereno Sereno 31 16 40 1013 10 NE 13
Oggi h: 13:20 sereno Sereno 31 16 40 1013 10 N/NE 14.8
Oggi h: 12:50 sereno Sereno 30 17 45 1013 10 N/NE 16.7
Oggi h: 12:20 sereno Sereno 31 17 43 1013 10 N 16.7
Oggi h: 11:50 sereno Sereno 31 18 45 1013 10 N/NO 14.8
Oggi h: 11:20 sereno Sereno 30 18 48 1013 10 N/NO 18.5
Oggi h: 10:50 sereno Sereno 30 19 51 1013 10 N/NO 18.5
Oggi h: 10:20 sereno Sereno 30 17 45 1013 10 NO 16.7
Oggi h: 09:50 sereno Sereno 31 15 37 1012 10 O 22.2
Oggi h: 09:20 sereno Sereno 31 15 37 1012 10 O 22.2
Oggi h: 08:50 sereno Sereno 30 15 40 1012 10 O 22.2
Oggi h: 08:20 sereno Sereno 29 17 48 1012 10 O 14.8
Oggi h: 07:50 sereno Sereno 28 18 54 1012 10 O/NO 13
Oggi h: 07:20 sereno Sereno 28 18 54 1011 10 O 13
Oggi h: 06:50 sereno Sereno 27 17 54 1011 10 O 11.1
Oggi h: 05:50 sereno Sereno 27 15 47 1010 10 O 13
Oggi h: 05:20 sereno Sereno 27 14 44 1010 10 O/NO 11.1
Oggi h: 04:50 sereno Sereno 27 17 54 1010 10 O/NO 9.3
Oggi h: 04:20 sereno Sereno 28 18 54 1010 10 NO 14.8
Oggi h: 03:50 sereno Sereno 29 17 48 1010 10 NO 14.8
Oggi h: 03:20 sereno Sereno 30 11 30 1009 10 O 11.1
Oggi h: 02:50 sereno Sereno 31 10 27 1009 10 S/SO 13
Oggi h: 02:20 sereno Sereno 31 11 29 1009 10 S/SO 18.5
Oggi h: 01:50 sereno Sereno 31 11 29 1009 10 S/SO 16.7
Oggi h: 01:20 sereno Sereno 32 12 29 1009 10 S/SO 20.3
Oggi h: 00:50 sereno Sereno 32 12 29 1009 10 SO 22.2
Oggi h: 00:20 sereno Sereno 30 12 33 1009 10 S 7.4
Ieri h: 23:50 sereno Sereno 31 12 31 1009 10 N 3.7
Ieri h: 23:20 sereno Sereno 31 11 29 1009 10 N 5.5
Ieri h: 22:50 sereno Sereno 32 11 27 1010 10 N 3.7
Ieri h: 22:20 sereno Sereno 33 11 26 1010 10 S/SO 9.3
Ieri h: 21:50 sereno Sereno 33 11 26 1010 10 S/SO 7.4
Ieri h: 21:20 sereno Sereno 33 11 26 1010 10 N 1.8
Ieri h: 20:20 sereno Sereno 36 10 20 1009 10 O/SO 24
Ieri h: 19:50 sereno Sereno 37 12 22 1009 10 O 11.1
Ieri h: 19:20 sereno Sereno 37 11 20 1009 10 N 7.4
Ieri h: 18:50 sereno Sereno 38 10 18 1008 10 N/NE 7.4
Ieri h: 18:20 sereno Sereno 38 11 19 1008 10 E/NE 16.7
Ieri h: 17:50 sereno Sereno 38 13 22 1008 10 N 9.3